Time;durP1;ratioP1;P1;durP2;ratioP2;P2;SDS_P1;SDS_P2;PMS_P1;PMS_P2;Temp;Humidity;BMP_temperature;BMP_pressure;BME280_temperature;BME280_humidity;BME280_pressure;Samples;Min_cycle;Max_cycle;Signal;HPM_P1;HPM_P2
2023/11/24 00:02:17;;;;;;;;;;;;;;;7.11;100.00;98642.53;181150;1262;95245;-59
2023/11/24 00:06:24;;;;;;;;;;;;;;;7.14;100.00;98636.92;181361;1259;92997;-57
2023/11/24 00:10:30;;;;;;;;;;;;;;;7.19;100.00;98609.83;181330;1260;42927;-57
2023/11/24 00:14:33;;;;;;;;;;;;;;;7.25;100.00;98623.52;181485;1260;42992;-57
2023/11/24 00:18:37;;;;;;;;;;;;;;;7.33;100.00;98616.44;181456;1260;42957;-62
2023/11/24 00:22:40;;;;;;;;;;;;;;;7.37;100.00;98620.69;181392;1260;43575;-61
2023/11/24 00:26:43;;;;;;;;;;;;;;;7.50;100.00;98604.28;181375;1260;58038;-58
2023/11/24 00:30:46;;;;;;;;;;;;;;;7.50;100.00;98597.51;181415;1261;43274;-58
2023/11/24 00:35:20;;;;;;;;;;;;;;;7.65;100.00;98588.54;181313;1260;42975;-58
2023/11/24 00:39:24;;;;;;;;;;;;;;;7.67;100.00;98574.46;181403;1260;43604;-61
2023/11/24 00:43:27;;;;;;;;;;;;;;;7.71;100.00;98572.65;181446;1260;43593;-59
2023/11/24 00:47:29;;;;;;;;;;;;;;;7.70;100.00;98586.83;181420;1260;57008;-58
2023/11/24 00:51:33;;;;;;;;;;;;;;;7.71;100.00;98585.14;181279;1264;43518;-60
2023/11/24 00:55:36;;;;;;;;;;;;;;;7.70;100.00;98591.84;181400;1260;43440;-59
2023/11/24 00:59:39;;;;;;;;;;;;;;;7.63;100.00;98573.95;181453;1260;43515;-58
2023/11/24 01:03:42;;;;;;;;;;;;;;;7.64;100.00;98561.66;181451;1260;43418;-59
2023/11/24 01:07:54;;;;;;;;;;;;;;;7.58;100.00;98547.08;181384;1260;59433;-57
2023/11/24 01:11:57;;;;;;;;;;;;;;;7.60;100.00;98557.27;181363;1260;43508;-62
2023/11/24 01:16:02;;;;;;;;;;;;;;;7.68;100.00;98550.33;181408;1260;42873;-59
2023/11/24 01:20:10;;;;;;;;;;;;;;;7.65;100.00;98566.02;181396;1265;42843;-57
2023/11/24 01:24:13;;;;;;;;;;;;;;;7.59;100.00;98574.88;181414;1261;43752;-58
2023/11/24 01:28:17;;;;;;;;;;;;;;;7.62;100.00;98584.29;181404;1260;58207;-58
2023/11/24 01:32:20;;;;;;;;;;;;;;;7.63;100.00;98600.52;181414;1260;42908;-59
2023/11/24 01:36:23;;;;;;;;;;;;;;;7.63;100.00;98591.09;181395;1260;43446;-61
2023/11/24 01:40:26;;;;;;;;;;;;;;;7.66;100.00;98600.06;181409;1260;43150;-59
2023/11/24 01:44:42;;;;;;;;;;;;;;;7.64;100.00;98610.46;181458;1260;42822;-60
2023/11/24 01:48:45;;;;;;;;;;;;;;;7.62;100.00;98610.04;181415;1260;58092;-58
2023/11/24 01:53:14;;;;;;;;;;;;;;;7.53;100.00;98605.55;181440;1260;43714;-59
2023/11/24 01:57:17;;;;;;;;;;;;;;;7.48;100.00;98589.95;181513;1260;42801;-59
2023/11/24 02:01:23;;;;;;;;;;;;;;;7.47;100.00;98584.10;181406;1260;43786;-60
2023/11/24 02:05:28;;;;;;;;;;;;;;;7.49;100.00;98578.24;181385;1260;42789;-60
2023/11/24 02:09:33;;;;;;;;;;;;;;;7.50;100.00;98576.42;181338;1261;58205;-59
2023/11/24 02:18:19;;;;;;;;;;;;;;;7.31;100.00;98582.66;181466;1260;42824;-60
2023/11/24 02:22:23;;;;;;;;;;;;;;;7.37;100.00;98544.45;181356;1260;42828;-61
2023/11/24 02:26:31;;;;;;;;;;;;;;;7.36;100.00;98547.23;181454;1260;42984;-59
2023/11/24 02:30:35;;;;;;;;;;;;;;;7.24;100.00;98544.16;181426;1260;57830;-59
2023/11/24 02:34:38;;;;;;;;;;;;;;;7.13;100.00;98529.59;181333;1260;42895;-59
2023/11/24 02:38:44;;;;;;;;;;;;;;;7.16;100.00;98533.26;181419;1260;42874;-59
2023/11/24 02:42:49;;;;;;;;;;;;;;;7.16;100.00;98498.17;181342;1260;42943;-59
2023/11/24 02:46:54;;;;;;;;;;;;;;;7.20;100.00;98504.13;181375;1260;42783;-60
2023/11/24 02:50:58;;;;;;;;;;;;;;;7.22;100.00;98535.61;181449;1260;57935;-60
2023/11/24 02:55:01;;;;;;;;;;;;;;;7.08;100.00;98574.17;181454;1260;42871;-59
2023/11/24 02:59:36;;;;;;;;;;;;;;;6.89;100.00;98605.06;181298;1260;42820;-58
2023/11/24 03:03:40;;;;;;;;;;;;;;;6.73;100.00;98590.71;181264;1260;43606;-60
2023/11/24 03:07:43;;;;;;;;;;;;;;;6.55;100.00;98601.95;181447;1260;43498;-59
2023/11/24 03:11:46;;;;;;;;;;;;;;;6.25;100.00;98598.14;181418;1260;57623;-58
2023/11/24 03:15:49;;;;;;;;;;;;;;;6.12;100.00;98587.39;181399;1261;43439;-58
2023/11/24 03:19:52;;;;;;;;;;;;;;;5.95;100.00;98592.00;181364;1260;42835;-59
2023/11/24 03:23:55;;;;;;;;;;;;;;;5.93;100.00;98591.82;181381;1260;43610;-59
2023/11/24 03:27:58;;;;;;;;;;;;;;;5.90;100.00;98592.10;181473;1260;43492;-60
2023/11/24 03:32:02;;;;;;;;;;;;;;;5.86;100.00;98594.80;181356;1260;57830;-59
2023/11/24 03:36:06;;;;;;;;;;;;;;;5.79;100.00;98598.00;181352;1260;43509;-59
2023/11/24 03:40:11;;;;;;;;;;;;;;;5.77;100.00;98598.86;181440;1260;42889;-59
2023/11/24 03:44:14;;;;;;;;;;;;;;;5.78;100.00;98591.23;181418;1260;43403;-58
2023/11/24 03:48:21;;;;;;;;;;;;;;;5.81;100.00;98587.25;181430;1264;42826;-59
2023/11/24 03:52:24;;;;;;;;;;;;;;;5.75;100.00;98579.89;181339;1263;57882;-58
2023/11/24 03:56:29;;;;;;;;;;;;;;;5.69;100.00;98568.80;181388;1260;42911;-59
2023/11/24 04:00:32;;;;;;;;;;;;;;;5.66;100.00;98558.16;181450;1262;43432;-59
2023/11/24 04:04:36;;;;;;;;;;;;;;;5.59;100.00;98563.23;181299;1261;43487;-60
2023/11/24 04:08:40;;;;;;;;;;;;;;;5.60;100.00;98555.17;181350;1261;43059;-61
2023/11/24 04:12:43;;;;;;;;;;;;;;;5.57;100.00;98558.46;181454;1261;57120;-59
2023/11/24 04:16:46;;;;;;;;;;;;;;;5.44;100.00;98558.52;181424;1261;42841;-58
2023/11/24 04:20:55;;;;;;;;;;;;;;;5.42;100.00;98558.12;181472;1260;42748;-59
2023/11/24 04:24:58;;;;;;;;;;;;;;;5.45;100.00;98552.82;181325;1260;43453;-59
2023/11/24 04:29:02;;;;;;;;;;;;;;;5.38;100.00;98552.66;181450;1260;43615;-59
2023/11/24 04:33:08;;;;;;;;;;;;;;;5.35;100.00;98555.94;181355;1260;58504;-59
2023/11/24 04:37:11;;;;;;;;;;;;;;;5.31;100.00;98565.98;181387;1260;43655;-60
2023/11/24 04:41:39;;;;;;;;;;;;;;;5.25;100.00;98561.59;181404;1260;42818;-59
2023/11/24 04:45:42;;;;;;;;;;;;;;;5.27;100.00;98563.68;181477;1260;42891;-59
2023/11/24 04:49:45;;;;;;;;;;;;;;;5.30;100.00;98565.66;181417;1260;43565;-59
2023/11/24 04:53:48;;;;;;;;;;;;;;;5.41;100.00;98569.15;181420;1261;57950;-59
2023/11/24 04:57:59;;;;;;;;;;;;;;;5.47;100.00;98571.81;181442;1262;43023;-60
2023/11/24 05:34:35;;;;;;;0.20;0.10;;;;;;;3.89;100.00;98611.66;174428;1284;582526;-86
2023/11/24 05:38:37;;;;;;;0.60;0.40;;;;;;;3.63;100.00;98634.27;176038;1269;59572;-87
2023/11/24 05:42:39;;;;;;;1.00;0.60;;;;;;;3.51;100.00;98641.34;177023;1266;44774;-87
2023/11/24 05:46:41;;;;;;;3.60;1.30;;;;;;;3.41;100.00;98635.13;177472;1263;46093;-85
2023/11/24 05:50:43;;;;;;;0.80;0.70;;;;;;;3.49;100.00;98622.17;177783;1263;46234;-87
2023/11/24 05:54:45;;;;;;;3.40;1.70;;;;;;;3.57;100.00;98613.54;177836;1256;45944;-86
2023/11/24 05:58:47;;;;;;;8.10;0.80;;;;;;;3.67;100.00;98613.58;177686;1260;59421;-86
2023/11/24 06:02:49;;;;;;;2.70;1.30;;;;;;;3.71;100.00;98611.52;177734;1258;46108;-87
2023/11/24 06:06:52;;;;;;;1.80;1.00;;;;;;;3.70;100.00;98608.44;178069;1257;46004;-87
2023/11/24 06:10:54;;;;;;;5.90;0.90;;;;;;;3.77;100.00;98599.48;178315;1256;45954;-86
2023/11/24 06:14:56;;;;;;;6.60;2.40;;;;;;;3.81;100.00;98585.84;179371;1252;46247;-87
2023/11/24 06:18:58;;;;;;;2.40;1.10;;;;;;;3.88;100.00;98590.03;178670;1255;59504;-86
2023/11/24 06:23:03;;;;;;;4.20;2.40;;;;;;;3.93;100.00;98587.36;178353;1253;46387;-88
2023/11/24 06:27:05;;;;;;;8.20;2.00;;;;;;;3.94;100.00;98588.09;179113;1256;46126;-86
2023/11/24 06:31:08;;;;;;;8.50;1.30;;;;;;;3.95;100.00;98589.04;179519;1256;46055;-86
2023/11/24 06:35:15;;;;;;;5.30;1.50;;;;;;;3.99;100.00;98591.61;178222;1254;45973;-86
2023/11/24 06:39:19;;;;;;;4.90;1.50;;;;;;;4.08;100.00;98583.83;179244;1257;58324;-85
2023/11/24 06:43:22;;;;;;;6.00;3.30;;;;;;;4.11;100.00;98583.38;177788;1257;46021;-85
2023/11/24 06:47:24;;;;;;;15.60;3.60;;;;;;;4.17;100.00;98582.91;178039;1254;46169;-86
2023/11/24 06:51:26;;;;;;;7.50;2.90;;;;;;;4.31;100.00;98579.29;180000;1253;46236;-84
2023/11/24 06:55:28;;;;;;;9.30;3.50;;;;;;;4.40;100.00;98585.63;177367;1258;46139;-86
2023/11/24 06:59:30;;;;;;;5.70;2.70;;;;;;;4.45;100.00;98591.33;177640;1256;59306;-84
2023/11/24 07:03:32;;;;;;;12.30;2.90;;;;;;;4.52;100.00;98592.85;177388;1256;46179;-85
2023/11/24 07:07:34;;;;;;;7.90;3.90;;;;;;;4.62;100.00;98589.00;177626;1259;46098;-84
2023/11/24 07:11:38;;;;;;;7.10;2.30;;;;;;;4.72;100.00;98585.37;177925;1256;45892;-79
2023/11/24 07:15:40;;;;;;;7.50;2.80;;;;;;;4.86;100.00;98577.15;179066;1257;46130;-79
2023/11/24 07:19:41;;;;;;;15.90;4.50;;;;;;;5.05;100.00;98568.77;178282;1256;58319;-85
2023/11/24 07:23:44;;;;;;;9.20;2.90;;;;;;;5.22;100.00;98559.84;178187;1256;46000;-89
2023/11/24 07:27:46;;;;;;;14.90;2.90;;;;;;;5.38;100.00;98559.61;177464;1256;46104;-86
2023/11/24 07:31:51;;;;;;;4.50;2.10;;;;;;;5.44;100.00;98552.55;177307;1255;46084;-82
2023/11/24 07:35:54;;;;;;;3.10;1.60;;;;;;;5.45;100.00;98544.41;177236;1256;46082;-85
2023/11/24 07:39:56;;;;;;;2.10;1.30;;;;;;;5.40;100.00;98549.55;177463;1256;59787;-86
2023/11/24 07:43:58;;;;;;;6.30;3.40;;;;;;;5.41;100.00;98554.19;177084;1255;46089;-85
2023/11/24 07:48:00;;;;;;;8.20;1.80;;;;;;;5.53;100.00;98542.06;177539;1256;46099;-87
2023/11/24 07:52:02;;;;;;;6.00;1.80;;;;;;;5.60;100.00;98546.27;177661;1255;46005;-87
2023/11/24 07:56:05;;;;;;;3.50;2.00;;;;;;;5.66;100.00;98538.14;177961;1255;46085;-86
2023/11/24 08:00:12;;;;;;;5.40;2.10;;;;;;;5.65;100.00;98531.72;177269;1257;59563;-83
2023/11/24 08:04:15;;;;;;;6.80;2.00;;;;;;;5.59;100.00;98530.89;177400;1255;46084;-85
2023/11/24 08:08:18;;;;;;;4.40;1.90;;;;;;;5.62;100.00;98509.67;178042;1255;46014;-85
2023/11/24 08:12:20;;;;;;;7.40;2.60;;;;;;;5.62;100.00;98515.61;177595;1257;46007;-86
2023/11/24 08:16:23;;;;;;;6.10;2.70;;;;;;;5.53;100.00;98507.08;177643;1257;45970;-85
2023/11/24 08:20:26;;;;;;;7.80;1.80;;;;;;;5.51;100.00;98505.30;177392;1255;59819;-85
2023/11/24 08:24:29;;;;;;;3.90;1.20;;;;;;;5.43;100.00;98498.85;177590;1255;46172;-87
2023/11/24 08:28:31;;;;;;;12.10;2.10;;;;;;;5.36;100.00;98493.80;177805;1256;46097;-86
2023/11/24 08:32:33;;;;;;;4.70;1.40;;;;;;;5.32;100.00;98495.23;177536;1255;46087;-83
2023/11/24 08:36:38;;;;;;;7.80;2.10;;;;;;;5.35;100.00;98498.86;177326;1258;45901;-87
2023/11/24 08:40:41;;;;;;;5.60;1.90;;;;;;;5.43;100.00;98493.41;177083;1255;58387;-88
2023/11/24 08:44:43;;;;;;;11.80;2.20;;;;;;;5.49;100.00;98488.95;177740;1260;46035;-87
2023/11/24 08:48:45;;;;;;;4.30;1.20;;;;;;;5.49;100.00;98479.43;177237;1256;45988;-86
2023/11/24 08:52:47;;;;;;;2.50;1.40;;;;;;;5.53;100.00;98460.48;177393;1255;46094;-84
2023/11/24 08:56:50;;;;;;;6.20;2.90;;;;;;;5.61;100.00;98477.71;178260;1257;46092;-86
2023/11/24 09:00:53;;;;;;;7.10;1.10;;;;;;;5.70;99.14;98460.61;177675;1257;58132;-86
2023/11/24 09:04:55;;;;;;;4.20;1.30;;;;;;;5.73;99.73;98469.40;178015;1255;46104;-84
2023/11/24 09:09:00;;;;;;;2.60;1.40;;;;;;;5.72;99.13;98479.74;177242;1255;46004;-87
2023/11/24 09:13:02;;;;;;;9.10;1.30;;;;;;;5.81;100.00;98475.73;177401;1256;45991;-87
2023/11/24 09:17:04;;;;;;;4.70;1.50;;;;;;;5.72;99.86;98481.29;177211;1256;46006;-84
2023/11/24 09:21:09;;;;;;;6.90;1.40;;;;;;;5.77;99.75;98479.85;177320;1255;60478;-86
2023/11/24 09:25:12;;;;;;;3.40;1.00;;;;;;;5.83;99.51;98472.21;177755;1255;47396;-84
2023/11/24 09:29:14;;;;;;;11.20;1.50;;;;;;;5.70;99.98;98490.10;177380;1255;46420;-87
2023/11/24 09:33:17;;;;;;;3.70;1.40;;;;;;;5.85;99.84;98475.92;177614;1255;46118;-87
2023/11/24 09:37:21;;;;;;;4.70;2.10;;;;;;;6.10;99.66;98475.27;177333;1259;46081;-87
2023/11/24 09:41:23;;;;;;;3.90;1.80;;;;;;;6.13;99.81;98474.83;177475;1255;58470;-86
2023/11/24 09:45:26;;;;;;;10.30;2.80;;;;;;;6.24;99.15;98454.27;177177;1255;45991;-84
2023/11/24 09:49:29;;;;;;;5.70;2.30;;;;;;;6.38;99.03;98456.81;177251;1260;46049;-87
2023/11/24 09:53:35;;;;;;;6.10;2.30;;;;;;;6.26;95.58;98450.05;177197;1256;46138;-84
2023/11/24 09:57:39;;;;;;;3.20;2.10;;;;;;;6.38;98.00;98449.30;177022;1255;46123;-85
2023/11/24 10:01:42;;;;;;;3.00;1.30;;;;;;;6.38;97.84;98451.55;178003;1257;57408;-82
2023/11/24 10:05:44;;;;;;;5.20;1.90;;;;;;;6.29;98.82;98443.78;177366;1255;46061;-85
2023/11/24 10:09:51;;;;;;;7.40;2.20;;;;;;;6.10;97.94;98441.48;179435;1253;43924;-83
2023/11/24 10:13:54;;;;;;;6.00;2.10;;;;;;;6.03;97.61;98430.44;177264;1258;46601;-86
2023/11/24 10:18:01;;;;;;;6.90;1.60;;;;;;;5.97;97.81;98422.10;177657;1257;45988;-83
2023/11/24 10:22:04;;;;;;;2.50;1.20;;;;;;;6.04;97.86;98421.80;177234;1258;59394;-85
2023/11/24 10:26:16;;;;;;;2.70;1.50;;;;;;;5.92;98.18;98431.67;177036;1257;46031;-83
2023/11/24 10:30:38;;;;;;;3.50;1.70;;;;;;;5.85;98.18;98420.85;177359;1258;46090;-86
2023/11/24 10:34:42;;;;;;;3.90;2.80;;;;;;;5.80;99.38;98412.73;176917;1256;45991;-84
2023/11/24 10:38:46;;;;;;;4.10;1.40;;;;;;;5.74;99.44;98411.31;177682;1256;46126;-86
2023/11/24 10:42:50;;;;;;;2.50;2.30;;;;;;;5.81;99.38;98407.64;176986;1257;59602;-86
2023/11/24 10:46:56;;;;;;;4.40;2.10;;;;;;;5.79;99.35;98402.55;177396;1260;46251;-86
2023/11/24 10:51:08;;;;;;;7.50;2.40;;;;;;;5.82;98.40;98393.83;177055;1255;46042;-87
2023/11/24 10:55:14;;;;;;;13.50;2.90;;;;;;;5.79;97.87;98386.02;177106;1257;46110;-86
2023/11/24 10:59:17;;;;;;;;;;;;;;;5.84;99.56;98384.23;177049;1256;46130;-83
2023/11/24 11:03:19;;;;;;;7.40;1.90;;;;;;;5.88;99.36;98385.27;176948;1258;57681;-84
2023/11/24 11:07:32;;;;;;;8.10;2.60;;;;;;;5.82;99.07;98378.75;177233;1258;46059;-86
2023/11/24 11:16:20;;;;;;;10.50;2.70;;;;;;;5.81;97.58;98375.80;143644;1256;45123;-59
2023/11/24 11:20:30;;;;;;;13.00;3.80;;;;;;;5.88;97.78;98369.43;180530;1256;43638;-58
2023/11/24 11:24:34;;;;;;;27.10;12.00;;;;;;;5.79;95.16;98381.61;180410;1256;58579;-58
2023/11/24 11:28:39;;;;;;;19.30;9.30;;;;;;;5.46;90.61;98381.42;180433;1256;43530;-58
2023/11/24 11:32:42;;;;;;;8.90;2.70;;;;;;;4.94;96.54;98387.85;180331;1257;43712;-58
2023/11/24 11:41:41;;;;;;;9.20;5.00;;;;;;;4.08;100.00;98377.39;176885;1260;46128;-83
2023/11/24 11:45:51;;;;;;;8.10;3.50;;;;;;;4.03;100.00;98371.13;176633;1262;59143;-83
2023/11/24 11:49:57;;;;;;;14.70;3.80;;;;;;;3.96;100.00;98364.91;176349;1262;46149;-80
2023/11/24 11:53:59;;;;;;;;;;;;;;;3.93;100.00;98359.70;176669;1260;46541;-86
2023/11/24 11:58:04;;;;;;;8.20;1.80;;;;;;;4.06;100.00;98354.34;176645;1261;45911;-83
2023/11/24 12:02:08;;;;;;;6.60;2.60;;;;;;;4.14;100.00;98351.21;176623;1262;46174;-84
2023/11/24 12:06:10;;;;;;;10.50;2.70;;;;;;;4.37;100.00;98353.31;176900;1260;59562;-84
2023/11/24 12:10:12;;;;;;;4.10;2.50;;;;;;;4.57;100.00;98345.92;176432;1260;46008;-84
2023/11/24 12:14:14;;;;;;;7.50;2.50;;;;;;;4.72;100.00;98341.16;176624;1262;46227;-85
2023/11/24 12:18:17;;;;;;;10.50;3.50;;;;;;;4.75;100.00;98349.48;176964;1260;46051;-85
2023/11/24 12:22:21;;;;;;;3.70;1.60;;;;;;;4.66;100.00;98346.59;176798;1260;46025;-84
2023/11/24 12:26:23;;;;;;;3.20;1.60;;;;;;;4.63;100.00;98342.48;176674;1260;57996;-84
2023/11/24 12:30:26;;;;;;;6.90;3.40;;;;;;;4.58;100.00;98342.02;177056;1261;45988;-82
2023/11/24 12:34:28;;;;;;;2.40;1.60;;;;;;;4.35;100.00;98342.37;178373;1260;46127;-85
2023/11/24 12:38:31;;;;;;;4.60;2.20;;;;;;;4.37;100.00;98349.48;178198;1258;46038;-87
2023/11/24 12:47:24;;;;;;;5.10;2.40;;;;;;;4.29;100.00;98358.02;176198;1267;58029;-83
2023/11/24 12:51:47;;;;;;;8.90;2.30;;;;;;;4.23;100.00;98348.20;176574;1269;46018;-85
2023/11/24 12:55:51;;;;;;;5.80;1.40;;;;;;;4.24;100.00;98343.06;176027;1268;46625;-85
2023/11/24 12:59:56;;;;;;;1.70;1.30;;;;;;;4.15;100.00;98334.34;175948;1270;46154;-85
2023/11/24 13:03:59;;;;;;;3.40;1.60;;;;;;;4.01;100.00;98332.83;176440;1267;46006;-85
2023/11/24 13:08:02;;;;;;;3.40;2.10;;;;;;;3.96;100.00;98336.10;176259;1269;59108;-85
2023/11/24 13:12:08;;;;;;;2.50;2.20;;;;;;;3.92;100.00;98327.28;175938;1269;46153;-84
2023/11/24 13:16:21;;;;;;;3.50;1.40;;;;;;;3.87;100.00;98324.59;175922;1268;46244;-85
2023/11/24 13:20:28;;;;;;;1.70;1.20;;;;;;;3.93;100.00;98323.92;175799;1268;46055;-85
2023/11/24 13:24:36;;;;;;;1.60;1.00;;;;;;;3.82;100.00;98324.12;175696;1267;46050;-85
2023/11/24 13:28:38;;;;;;;8.10;1.90;;;;;;;3.85;100.00;98320.56;175640;1269;60023;-85
2023/11/24 13:32:41;;;;;;;2.20;1.40;;;;;;;3.88;100.00;98311.86;176116;1269;46242;-86
2023/11/24 13:36:47;;;;;;;4.30;1.90;;;;;;;3.90;100.00;98306.29;176816;1268;46014;-86
2023/11/24 13:40:49;;;;;;;5.70;2.40;;;;;;;3.93;100.00;98306.16;176904;1268;44869;-86
2023/11/24 13:49:30;;;;;;;3.80;1.70;;;;;;;4.02;100.00;98291.91;176435;1268;57920;-84
2023/11/24 13:58:33;;;;;;;4.60;1.80;;;;;;;4.10;100.00;98283.00;177739;1263;89899;-59
2023/11/24 14:02:35;;;;;;;4.40;1.30;;;;;;;4.11;100.00;98285.00;179388;1268;45005;-62
2023/11/24 14:07:20;;;;;;;10.20;2.20;;;;;;;4.09;100.00;98274.77;179477;1267;46013;-62
2023/11/24 14:11:22;;;;;;;5.40;2.20;;;;;;;4.18;100.00;98276.87;178243;1275;58737;-62
2023/11/24 14:15:27;;;;;;;10.10;2.50;;;;;;;4.10;100.00;98280.39;177972;1273;43652;-61
2023/11/24 14:19:31;;;;;;;15.20;2.20;;;;;;;4.05;100.00;98278.32;178102;1275;44718;-61
2023/11/24 14:23:46;;;;;;;4.10;2.00;;;;;;;4.07;100.00;98272.33;178165;1274;43715;-62
2023/11/24 14:27:48;;;;;;;6.60;2.70;;;;;;;4.06;100.00;98270.16;178249;1273;45891;-61
2023/11/24 14:31:50;;;;;;;5.00;1.80;;;;;;;3.92;100.00;98271.20;177994;1274;59049;-61
2023/11/24 14:35:52;;;;;;;7.80;2.60;;;;;;;3.86;100.00;98275.05;178261;1273;46034;-62
2023/11/24 14:39:54;;;;;;;7.70;3.10;;;;;;;3.82;100.00;98270.46;178153;1273;44009;-62
2023/11/24 14:43:57;;;;;;;5.90;2.50;;;;;;;3.75;100.00;98263.70;178351;1273;44945;-62
2023/11/24 14:47:59;;;;;;;8.10;3.00;;;;;;;3.72;100.00;98266.41;178796;1267;43560;-62
2023/11/24 14:52:30;;;;;;;7.10;3.40;;;;;;;3.63;100.00;98264.21;179580;1267;59020;-62
2023/11/24 14:56:35;;;;;;;4.80;2.90;;;;;;;3.59;100.00;98259.14;179318;1268;46062;-62
2023/11/24 15:01:42;;;;;;;24.30;3.90;;;;;;;3.58;100.00;98257.45;179133;1268;45993;-62
2023/11/24 15:05:52;;;;;;;;;;;;;;;3.54;100.00;98255.14;179328;1268;44890;-62
2023/11/24 15:09:56;;;;;;;8.70;2.90;;;;;;;3.52;100.00;98236.93;179395;1268;43304;-62
2023/11/24 15:13:58;;;;;;;2.20;1.50;;;;;;;3.46;100.00;98234.90;179180;1267;58552;-63
2023/11/24 15:18:02;;;;;;;9.00;3.50;;;;;;;3.42;100.00;98233.02;179398;1267;44782;-62
2023/11/24 15:22:31;;;;;;;7.90;2.50;;;;;;;3.37;100.00;98230.81;179334;1268;45964;-62
2023/11/24 15:26:36;;;;;;;3.50;1.70;;;;;;;3.31;100.00;98225.73;179450;1268;46073;-62
2023/11/24 15:30:43;;;;;;;2.60;2.40;;;;;;;3.24;100.00;98229.63;179402;1267;43573;-62
2023/11/24 15:34:45;;;;;;;5.20;2.70;;;;;;;3.18;100.00;98228.59;179188;1270;58546;-62
2023/11/24 15:38:52;;;;;;;3.80;1.10;;;;;;;3.14;100.00;98227.13;179598;1267;43734;-62
2023/11/24 15:42:54;;;;;;;5.10;2.10;;;;;;;3.14;100.00;98220.10;179520;1268;44146;-62
2023/11/24 15:47:05;;;;;;;3.00;1.80;;;;;;;3.14;100.00;98219.92;179271;1271;45887;-63
2023/11/24 15:51:09;;;;;;;5.20;2.50;;;;;;;3.15;100.00;98207.80;179507;1268;46063;-62
2023/11/24 15:55:12;;;;;;;5.00;2.40;;;;;;;3.16;100.00;98203.29;178953;1268;58519;-63
2023/11/24 15:59:24;;;;;;;7.00;2.30;;;;;;;3.17;100.00;98205.17;179541;1267;43493;-63
2023/11/24 16:03:26;;;;;;;4.70;2.20;;;;;;;3.20;100.00;98201.78;179566;1268;44724;-63
2023/11/24 16:08:32;;;;;;;5.70;2.50;;;;;;;3.21;100.00;98207.81;179672;1267;46008;-63
2023/11/24 16:12:37;;;;;;;6.50;3.40;;;;;;;3.21;100.00;98207.10;179722;1268;44569;-63
2023/11/24 16:16:42;;;;;;;9.90;4.60;;;;;;;3.22;100.00;98194.56;179615;1267;57973;-63
2023/11/24 16:20:51;;;;;;;3.30;2.50;;;;;;;3.24;100.00;98190.34;179687;1268;45095;-63
2023/11/24 16:24:53;;;;;;;6.30;2.70;;;;;;;3.27;100.00;98181.52;179555;1267;46044;-63
2023/11/24 16:28:57;;;;;;;5.80;2.40;;;;;;;3.35;100.00;98175.63;179729;1268;43583;-63
2023/11/24 16:33:03;;;;;;;4.60;3.10;;;;;;;3.36;100.00;98176.42;179465;1268;45985;-63
2023/11/24 16:37:07;;;;;;;6.80;3.70;;;;;;;3.37;100.00;98174.76;179757;1267;58621;-63
2023/11/24 16:41:14;;;;;;;9.20;3.80;;;;;;;3.41;100.00;98173.69;179545;1267;43713;-63
2023/11/24 16:45:16;;;;;;;4.40;3.30;;;;;;;3.42;100.00;98176.60;179281;1268;43788;-63
2023/11/24 16:49:18;;;;;;;7.30;3.30;;;;;;;3.46;100.00;98180.16;179180;1268;45970;-63
2023/11/24 16:53:20;;;;;;;7.40;2.80;;;;;;;3.44;100.00;98169.05;179510;1267;45976;-63
2023/11/24 16:57:25;;;;;;;8.10;3.30;;;;;;;3.44;100.00;98175.89;179454;1268;58552;-63
2023/11/24 17:01:29;;;;;;;4.90;3.30;;;;;;;3.43;100.00;98180.71;179377;1268;46024;-63
2023/11/24 17:05:35;;;;;;;6.30;3.10;;;;;;;3.47;100.00;98176.36;179377;1268;45848;-64
2023/11/24 17:09:38;;;;;;;6.50;3.20;;;;;;;3.49;100.00;98165.48;179077;1267;44801;-64
2023/11/24 17:13:56;;;;;;;7.70;5.00;;;;;;;3.55;100.00;98160.54;179290;1270;45917;-64
2023/11/24 17:17:58;;;;;;;10.30;3.70;;;;;;;3.65;100.00;98156.27;179366;1267;57550;-64
2023/11/24 17:22:00;;;;;;;9.40;2.70;;;;;;;3.68;100.00;98147.73;179548;1268;43625;-64
2023/11/24 17:26:02;;;;;;;7.80;3.80;;;;;;;3.72;100.00;98145.66;179528;1268;43540;-64
2023/11/24 17:30:06;;;;;;;14.80;5.10;;;;;;;3.69;100.00;98138.48;179298;1268;46133;-64
2023/11/24 17:34:10;;;;;;;9.10;4.00;;;;;;;3.67;100.00;98141.89;179190;1268;45983;-64
2023/11/24 17:38:15;;;;;;;9.20;2.90;;;;;;;3.58;100.00;98153.14;179393;1268;214111;-63
2023/11/24 17:42:21;;;;;;;4.50;2.60;;;;;;;3.51;100.00;98153.98;179383;1268;45263;-63
2023/11/24 17:46:39;;;;;;;12.10;4.40;;;;;;;3.52;100.00;98154.16;179205;1267;45984;-63
2023/11/24 17:50:42;;;;;;;7.80;3.30;;;;;;;3.59;100.00;98159.50;179230;1268;44775;-64
2023/11/24 17:54:44;;;;;;;5.90;2.80;;;;;;;3.62;100.00;98163.33;179265;1267;43999;-63
2023/11/24 17:58:52;;;;;;;9.40;1.80;;;;;;;3.69;100.00;98158.28;179317;1268;58305;-63
2023/11/24 18:02:56;;;;;;;6.40;2.90;;;;;;;3.74;100.00;98156.49;179267;1267;46010;-63
2023/11/24 18:07:04;;;;;;;;;;;;;;;3.74;100.00;98144.90;179529;1268;45947;-63
2023/11/24 18:11:06;;;;;;;6.90;2.40;;;;;;;3.75;100.00;98146.56;179498;1268;43301;-63
2023/11/24 18:15:10;;;;;;;16.50;2.80;;;;;;;3.77;100.00;98148.83;179108;1267;46051;-63
2023/11/24 18:19:12;;;;;;;8.20;2.70;;;;;;;3.82;100.00;98159.98;179406;1267;58498;-63
2023/11/24 18:23:15;;;;;;;4.10;2.70;;;;;;;3.86;100.00;98167.73;179141;1267;44915;-63
2023/11/24 18:27:23;;;;;;;4.80;1.80;;;;;;;3.92;100.00;98153.14;179485;1267;45947;-64
2023/11/24 18:31:29;;;;;;;10.00;4.40;;;;;;;3.85;100.00;98159.56;179346;1268;45959;-63
2023/11/24 18:35:36;;;;;;;5.10;2.90;;;;;;;3.83;100.00;98156.38;179519;1267;43578;-62
2023/11/24 18:39:39;;;;;;;4.30;2.60;;;;;;;3.84;100.00;98161.72;179041;1268;57917;-63
2023/11/24 18:43:42;;;;;;;5.30;3.40;;;;;;;3.78;100.00;98171.35;179520;1268;46000;-64
2023/11/24 18:47:47;;;;;;;5.90;3.40;;;;;;;3.79;100.00;98170.58;179592;1267;43533;-63
2023/11/24 18:51:49;;;;;;;3.90;1.90;;;;;;;3.89;100.00;98168.88;179304;1267;46069;-63
2023/11/24 18:56:12;;;;;;;7.10;2.20;;;;;;;3.91;100.00;98166.25;179445;1268;46040;-63
2023/11/24 19:00:18;;;;;;;4.40;2.80;;;;;;;3.95;100.00;98164.50;179371;1268;60161;-63
2023/11/24 19:04:25;;;;;;;4.90;1.80;;;;;;;3.89;100.00;98172.37;179508;1267;43739;-62
2023/11/24 19:08:27;;;;;;;4.90;2.20;;;;;;;3.88;100.00;98165.11;179603;1268;43528;-62
2023/11/24 19:12:33;;;;;;;3.20;1.60;;;;;;;3.80;100.00;98164.23;179670;1268;45054;-63
2023/11/24 19:16:49;;;;;;;4.20;1.70;;;;;;;3.73;100.00;98174.96;179418;1268;43651;-62
2023/11/24 19:20:53;;;;;;;3.30;2.00;;;;;;;3.68;100.00;98179.78;179420;1268;58541;-62
2023/11/24 19:24:57;;;;;;;5.80;2.00;;;;;;;3.62;100.00;98177.64;179468;1268;46130;-63
2023/11/24 19:28:59;;;;;;;4.00;2.90;;;;;;;3.59;100.00;98173.23;179320;1268;44549;-63
2023/11/24 19:33:13;;;;;;;3.50;2.00;;;;;;;3.59;100.00;98166.91;179487;1268;45985;-63
2023/11/24 19:37:21;;;;;;;6.20;2.80;;;;;;;3.58;100.00;98160.47;179318;1267;46037;-63
2023/11/24 19:41:22;;;;;;;2.00;1.90;;;;;;;3.54;100.00;98159.46;179327;1267;58965;-62
2023/11/24 19:50:36;;;;;;;8.60;2.90;;;;;;;3.44;100.00;98139.63;179430;1268;43555;-63
2023/11/24 19:54:39;;;;;;;9.80;3.00;;;;;;;3.52;100.00;98131.20;179359;1268;44590;-62
2023/11/24 19:59:31;;;;;;;7.70;2.70;;;;;;;3.57;100.00;98127.34;179277;1268;45925;-62
2023/11/24 20:03:33;;;;;;;3.40;2.30;;;;;;;3.53;100.00;98127.66;179497;1268;58607;-62
2023/11/24 20:07:36;;;;;;;2.80;1.50;;;;;;;3.51;100.00;98120.57;179509;1268;44986;-62
2023/11/24 20:12:09;;;;;;;2.50;1.70;;;;;;;3.52;100.00;98111.63;179317;1268;43694;-62
2023/11/24 20:16:11;;;;;;;3.20;1.50;;;;;;;3.54;100.00;98119.45;179409;1268;46027;-62
2023/11/24 20:20:16;;;;;;;2.30;1.30;;;;;;;3.51;100.00;98115.56;179352;1268;44975;-63
2023/11/24 20:24:19;;;;;;;3.40;1.80;;;;;;;3.52;100.00;98118.97;179546;1268;59275;-62
2023/11/24 20:28:21;;;;;;;4.30;1.40;;;;;;;3.43;100.00;98114.85;179409;1268;44550;-62
2023/11/24 20:32:23;;;;;;;2.80;1.70;;;;;;;3.29;100.00;98120.02;179334;1268;43985;-62
2023/11/24 20:36:26;;;;;;;2.90;1.60;;;;;;;3.19;100.00;98118.42;179524;1268;45073;-62
2023/11/24 20:40:28;;;;;;;1.60;1.50;;;;;;;3.11;100.00;98118.95;179600;1269;44397;-62